• Join FlightAware (Why Join?)
  • Login
  • US Flag 
11:22PM EDT


 

Airport Tracker/Info


-or-


 

Live Flight TrackerFlight Track Log ✈ RPA3243 ✈ 15-May-2013 ✈ KPVD - KDCA

Flight Track Log - Related Links

Times and Time Zones

All times are in EDT time to prevent confusion due to time zone crossing. See the RPA3243 flight status page for this flight to view local times or setup timezone preferences in your user account.

Time Position Orientation Groundspeed Altitude Reporting Facility
EDT Latitude Longitude Course Direction KTS MPH feet Rate Location/Type
05:34PM 41.7083 -71.4389 270° West 135 155 800  Level Boston Center
05:35PM 41.7042 -71.4642 258° West 153 176 1,900 2,160 Climbing Boston Center
05:36PM 41.7197 -71.5611 282° West 207 238 4,600 2,820 Climbing Boston Center
05:37PM 41.8833 -71.7179 270° West  Level FlightAware Approximate
05:37PM 41.7744 -71.6272 318° Northwest 240 276 8,300  Level Boston Center
05:38PM 41.9388 -71.8166 312° West  Level FlightAware Approximate
05:38PM 41.8289 -71.6906 319° Northwest 255 293 12,300  Level Boston Center
05:39PM 41.9501 -71.9380 270° West  Level FlightAware Approximate
05:39PM 41.8772 -71.7514 317° Northwest 260 299 15,000  Level Boston Center
05:40PM 41.9500 -72.0652 270° West  Level FlightAware Approximate
05:40PM 41.9256 -71.8317 309° West 260 299 17,200  Level Boston Center
05:41PM 41.9283 -71.9461 272° West 288 331 19,100 1,920 Climbing Boston Center
05:42PM 41.9308 -72.0633 272° West 306 352 21,100 1,860 Climbing Boston Center
05:43PM 41.9333 -72.1861 272° West 318 366 22,900 1,800 Climbing Boston Center
05:44PM 41.9356 -72.3144 271° West 337 388 24,800 1,680 Climbing Boston Center
05:45PM 41.9294 -72.4428 266° West 343 395 26,300 1,320 Climbing Boston Center
05:46PM 41.8856 -72.5406 239° Southwest 349 402 27,500 540 Climbing Boston Center
05:48PM 41.7433 -72.7850 232° Southwest 365 420 28,000 120 Climbing Boston Center
05:49PM 41.6806 -72.8931 232° Southwest 371 427 28,000  Level Boston Center
05:50PM 41.6175 -73.0036 233° Southwest 376 433 28,000  Level Boston Center
05:51PM 41.5522 -73.1197 233° Southwest 388 447 28,000  Level Boston Center
05:52PM 41.4889 -73.2272 232° Southwest 393 452 28,000  Level Boston Center
05:53PM 41.4172 -73.3536 233° Southwest 416 479 28,000  Level Boston Center
05:54PM 41.3453 -73.4769 232° Southwest 426 490 28,000  Level Boston Center
05:56PM 41.2019 -73.7192 232° Southwest 417 480 28,000  Level New York Center
05:57PM 41.1281 -73.8397 231° Southwest 423 487 28,000  Level New York Center
05:58PM 41.0647 -73.9525 233° Southwest 417 480 28,000  Level New York Center
05:59PM 40.9969 -74.0619 231° Southwest 397 457 28,000  Level New York Center
06:00PM 40.9314 -74.1686 231° Southwest 391 450 28,000  Level New York Center
06:01PM 40.8569 -74.2939 232° Southwest 391 450 28,000  Level New York Center
06:02PM 40.7914 -74.4000 231° Southwest 391 450 28,000  Level New York Center
06:03PM 40.7256 -74.5061 231° Southwest 391 450 28,000  Level New York Center
06:04PM 40.6594 -74.6147 231° Southwest 391 450 28,000 -360 Level New York Center
06:05PM 40.5956 -74.7231 232° Southwest 391 450 27,300 -900 Descending New York Center
06:06PM 40.5253 -74.8283 229° Southwest 391 450 26,300 -1,020 Descending New York Center
06:07PM 40.4575 -74.9169 225° Southwest 385 443 25,300 -1,020 Descending New York Center
06:08PM 40.3872 -75.0192 228° Southwest 385 443 24,300 -900 Descending New York Center
06:09PM 40.3192 -75.1156 227° Southwest 380 437 23,500 -720 Descending New York Center
06:10PM 40.2486 -75.2144 227° Southwest 380 437 22,900 -600 Descending New York Center
06:11PM 40.1803 -75.3133 228° Southwest 375 432 22,300 -480 Descending New York Center
06:12PM 40.1119 -75.4067 226° Southwest 370 426 22,000 -180 Descending New York Center
06:13PM 40.0414 -75.5050 227° Southwest 370 426 22,000  Level New York Center
06:14PM 39.9731 -75.5978 226° Southwest 370 426 22,000 -480 Level New York Center
06:15PM 39.9042 -75.6986 228° Southwest 370 426 21,100 -960 Descending New York Center
06:16PM 39.8542 -75.8006 237° Southwest 358 412 20,100 -600 Descending New York Center
06:17PM 39.7994 -75.9047 236° Southwest 351 404 19,900 -660 Descending New York Center
06:18PM 39.7383 -76.0164 235° Southwest 346 398 18,800 -1,440 Descending New York Center
06:19PM 39.6861 -76.1122 235° Southwest 341 392 17,100 -1,800 Descending New York Center
06:20PM 39.6378 -76.2111 238° Southwest 341 392 15,300 -1,560 Descending New York Center
06:21PM 39.5900 -76.2936 233° Southwest 327 376 14,100 -1,260 Descending New York Center
06:22PM 39.5500 -76.3333 217° Southwest 324 373 13,600 -1,260 Descending Potomac TRACON
06:23PM 39.4833 -76.4000 218° Southwest 323 372 12,400 -840 Descending Potomac TRACON
06:24PM 39.4000 -76.4500 205° Southwest 316 364 12,000 -420 Descending Potomac TRACON
06:24PM 39.3333 -76.5167 218° Southwest 313 360 11,700 -600 Descending Potomac TRACON
06:26PM 39.2667 -76.5833 218° Southwest 304 350 10,900 -780 Descending Potomac TRACON
06:26PM 39.2000 -76.6500 218° Southwest 304 350 10,200 -480 Descending Potomac TRACON
06:28PM 39.1333 -76.7167 218° Southwest 270 311 10,000 -120 Descending Potomac TRACON
06:29PM 39.0833 -76.7667 218° Southwest 269 310 10,000 -780 Level Potomac TRACON
06:29PM 39.0167 -76.8333 218° Southwest 266 306 8,600 -1,500 Descending Potomac TRACON
06:31PM 38.9833 -76.9000 237° Southwest 257 296 7,000 -1,320 Descending Potomac TRACON
06:32PM 38.9667 -76.9833 256° West 227 261 6,000 -540 Descending Potomac TRACON
06:33PM 38.9833 -77.0500 288° West 200 230 6,000 -600 Level Potomac TRACON
06:34PM 39.0333 -77.1000 322° Northwest 198 228 4,800 -1,500 Descending Potomac TRACON
06:35PM 39.0167 -77.1500 247° West 199 229 3,000 -1,140 Descending Potomac TRACON
06:36PM 38.9833 -77.1667 201° Southwest 178 205 2,600 -480 Descending Potomac TRACON
06:37PM 38.9500 -77.1333 142° Southeast 168 193 2,000 -600 Descending Potomac TRACON
06:38PM 38.9000 -77.1000 153° Southeast 154 177 1,400 -720 Descending Potomac TRACON
06:39PM 38.8833 -77.0500 113° Southeast 140 161 600 -840 Descending Potomac TRACON